sensor_id;sensor_type;location;lat;lon;timestamp;P1;durP1;ratioP1;P2;durP2;ratioP2
72422;SDS011;60413;55.658;37.498;2023-03-20T00:04:26;15.60;;;5.45;;
72422;SDS011;60413;55.658;37.498;2023-03-20T00:20:12;19.70;;;5.05;;
72422;SDS011;60413;55.658;37.498;2023-03-20T00:23:08;13.48;;;5.10;;
72422;SDS011;60413;55.658;37.498;2023-03-20T00:25:44;16.70;;;5.22;;
72422;SDS011;60413;55.658;37.498;2023-03-20T00:28:44;15.00;;;5.30;;
72422;SDS011;60413;55.658;37.498;2023-03-20T00:31:24;10.85;;;5.15;;
72422;SDS011;60413;55.658;37.498;2023-03-20T00:34:10;14.05;;;5.68;;
72422;SDS011;60413;55.658;37.498;2023-03-20T00:36:44;11.40;;;4.83;;
72422;SDS011;60413;55.658;37.498;2023-03-20T00:42:53;17.20;;;5.18;;
72422;SDS011;60413;55.658;37.498;2023-03-20T00:54:30;14.95;;;5.07;;
72422;SDS011;60413;55.658;37.498;2023-03-20T00:59:50;11.45;;;4.85;;
72422;SDS011;60413;55.658;37.498;2023-03-20T01:02:50;14.48;;;5.10;;
72422;SDS011;60413;55.658;37.498;2023-03-20T01:05:26;15.98;;;5.18;;
72422;SDS011;60413;55.658;37.498;2023-03-20T01:07:59;11.90;;;4.93;;
72422;SDS011;60413;55.658;37.498;2023-03-20T01:10:37;11.52;;;5.15;;
72422;SDS011;60413;55.658;37.498;2023-03-20T01:13:18;11.73;;;5.72;;
72422;SDS011;60413;55.658;37.498;2023-03-20T01:16:22;11.20;;;4.68;;
72422;SDS011;60413;55.658;37.498;2023-03-20T01:18:55;11.27;;;4.95;;
72422;SDS011;60413;55.658;37.498;2023-03-20T01:21:34;13.00;;;4.78;;
72422;SDS011;60413;55.658;37.498;2023-03-20T01:24:23;13.35;;;4.70;;
72422;SDS011;60413;55.658;37.498;2023-03-20T01:26:57;11.32;;;5.22;;
72422;SDS011;60413;55.658;37.498;2023-03-20T01:29:31;12.27;;;5.05;;
72422;SDS011;60413;55.658;37.498;2023-03-20T01:32:23;14.32;;;5.10;;
72422;SDS011;60413;55.658;37.498;2023-03-20T01:34:56;9.32;;;4.60;;
72422;SDS011;60413;55.658;37.498;2023-03-20T01:37:31;13.32;;;5.05;;
72422;SDS011;60413;55.658;37.498;2023-03-20T01:43:18;16.35;;;5.18;;
72422;SDS011;60413;55.658;37.498;2023-03-20T01:52:29;12.38;;;4.70;;
72422;SDS011;60413;55.658;37.498;2023-03-20T01:55:53;9.55;;;3.53;;
72422;SDS011;60413;55.658;37.498;2023-03-20T02:02:15;10.48;;;4.15;;
72422;SDS011;60413;55.658;37.498;2023-03-20T02:05:19;11.23;;;3.67;;
72422;SDS011;60413;55.658;37.498;2023-03-20T02:11:24;9.57;;;4.93;;
72422;SDS011;60413;55.658;37.498;2023-03-20T02:13:58;8.05;;;3.95;;
72422;SDS011;60413;55.658;37.498;2023-03-20T02:16:43;9.57;;;4.25;;
72422;SDS011;60413;55.658;37.498;2023-03-20T02:42:43;8.75;;;3.92;;
72422;SDS011;60413;55.658;37.498;2023-03-20T02:48:21;8.82;;;3.72;;
72422;SDS011;60413;55.658;37.498;2023-03-20T02:56:57;10.48;;;4.22;;
72422;SDS011;60413;55.658;37.498;2023-03-20T02:59:45;8.82;;;3.72;;
72422;SDS011;60413;55.658;37.498;2023-03-20T03:05:49;8.93;;;3.97;;
72422;SDS011;60413;55.658;37.498;2023-03-20T03:08:26;9.85;;;4.20;;
72422;SDS011;60413;55.658;37.498;2023-03-20T03:11:07;8.38;;;3.60;;
72422;SDS011;60413;55.658;37.498;2023-03-20T03:13:42;9.82;;;3.58;;
72422;SDS011;60413;55.658;37.498;2023-03-20T03:16:18;7.78;;;3.35;;
72422;SDS011;60413;55.658;37.498;2023-03-20T03:18:53;7.15;;;3.42;;
72422;SDS011;60413;55.658;37.498;2023-03-20T03:21:55;6.68;;;2.95;;
72422;SDS011;60413;55.658;37.498;2023-03-20T03:24:33;8.00;;;3.10;;
72422;SDS011;60413;55.658;37.498;2023-03-20T03:27:12;7.97;;;3.03;;
72422;SDS011;60413;55.658;37.498;2023-03-20T03:33:44;10.98;;;3.80;;
72422;SDS011;60413;55.658;37.498;2023-03-20T03:36:31;7.40;;;3.83;;
72422;SDS011;60413;55.658;37.498;2023-03-20T03:46:06;14.88;;;5.47;;
72422;SDS011;60413;55.658;37.498;2023-03-20T03:49:01;10.15;;;4.40;;
72422;SDS011;60413;55.658;37.498;2023-03-20T03:58:22;12.10;;;4.30;;
72422;SDS011;60413;55.658;37.498;2023-03-20T04:00:58;9.13;;;3.92;;
72422;SDS011;60413;55.658;37.498;2023-03-20T04:03:53;6.55;;;4.00;;
72422;SDS011;60413;55.658;37.498;2023-03-20T04:07:08;7.32;;;3.10;;
72422;SDS011;60413;55.658;37.498;2023-03-20T04:09:35;10.45;;;3.75;;
72422;SDS011;60413;55.658;37.498;2023-03-20T04:12:01;12.48;;;5.60;;
72422;SDS011;60413;55.658;37.498;2023-03-20T04:14:29;6.70;;;3.60;;
72422;SDS011;60413;55.658;37.498;2023-03-20T04:17:01;8.50;;;3.70;;
72422;SDS011;60413;55.658;37.498;2023-03-20T04:22:55;8.95;;;3.78;;
72422;SDS011;60413;55.658;37.498;2023-03-20T04:25:26;6.43;;;3.17;;
72422;SDS011;60413;55.658;37.498;2023-03-20T04:33:47;6.83;;;3.43;;
72422;SDS011;60413;55.658;37.498;2023-03-20T04:37:25;7.38;;;3.17;;
72422;SDS011;60413;55.658;37.498;2023-03-20T04:40:15;11.82;;;3.33;;
72422;SDS011;60413;55.658;37.498;2023-03-20T04:46:20;11.18;;;3.17;;
72422;SDS011;60413;55.658;37.498;2023-03-20T05:02:20;6.15;;;3.10;;
72422;SDS011;60413;55.658;37.498;2023-03-20T05:07:42;5.13;;;2.80;;
72422;SDS011;60413;55.658;37.498;2023-03-20T05:10:20;6.22;;;3.17;;
72422;SDS011;60413;55.658;37.498;2023-03-20T05:12:53;6.05;;;3.47;;
72422;SDS011;60413;55.658;37.498;2023-03-20T05:28:30;13.43;;;4.82;;
72422;SDS011;60413;55.658;37.498;2023-03-20T05:34:58;10.63;;;3.55;;
72422;SDS011;60413;55.658;37.498;2023-03-20T05:37:54;7.90;;;4.45;;
72422;SDS011;60413;55.658;37.498;2023-03-20T05:40:33;14.25;;;4.63;;
72422;SDS011;60413;55.658;37.498;2023-03-20T05:43:38;9.52;;;4.13;;
72422;SDS011;60413;55.658;37.498;2023-03-20T05:46:38;7.65;;;3.95;;
72422;SDS011;60413;55.658;37.498;2023-03-20T05:50:07;7.28;;;4.07;;
72422;SDS011;60413;55.658;37.498;2023-03-20T05:53:18;16.23;;;3.58;;
72422;SDS011;60413;55.658;37.498;2023-03-20T05:56:59;7.85;;;3.92;;
72422;SDS011;60413;55.658;37.498;2023-03-20T06:00:14;19.45;;;4.65;;
72422;SDS011;60413;55.658;37.498;2023-03-20T06:03:29;10.43;;;4.45;;
72422;SDS011;60413;55.658;37.498;2023-03-20T06:06:31;14.70;;;4.68;;
72422;SDS011;60413;55.658;37.498;2023-03-20T06:09:11;12.77;;;4.85;;
72422;SDS011;60413;55.658;37.498;2023-03-20T06:11:59;10.38;;;4.60;;
72422;SDS011;60413;55.658;37.498;2023-03-20T06:14:30;13.70;;;4.87;;
72422;SDS011;60413;55.658;37.498;2023-03-20T06:35:45;12.38;;;5.05;;
72422;SDS011;60413;55.658;37.498;2023-03-20T06:43:22;12.07;;;4.55;;
72422;SDS011;60413;55.658;37.498;2023-03-20T06:46:05;17.48;;;5.38;;
72422;SDS011;60413;55.658;37.498;2023-03-20T06:48:47;10.40;;;4.93;;
72422;SDS011;60413;55.658;37.498;2023-03-20T06:51:44;11.00;;;4.78;;
72422;SDS011;60413;55.658;37.498;2023-03-20T06:57:42;12.20;;;5.13;;
72422;SDS011;60413;55.658;37.498;2023-03-20T07:04:00;13.68;;;5.00;;
72422;SDS011;60413;55.658;37.498;2023-03-20T07:09:48;12.95;;;5.13;;
72422;SDS011;60413;55.658;37.498;2023-03-20T07:12:18;22.13;;;6.28;;
72422;SDS011;60413;55.658;37.498;2023-03-20T07:17:59;19.98;;;6.68;;
72422;SDS011;60413;55.658;37.498;2023-03-20T07:25:53;13.02;;;6.25;;
72422;SDS011;60413;55.658;37.498;2023-03-20T07:32:29;17.52;;;6.32;;
72422;SDS011;60413;55.658;37.498;2023-03-20T07:41:59;10.50;;;5.53;;
72422;SDS011;60413;55.658;37.498;2023-03-20T07:45:04;16.48;;;5.47;;
72422;SDS011;60413;55.658;37.498;2023-03-20T07:55:18;10.10;;;4.78;;
72422;SDS011;60413;55.658;37.498;2023-03-20T08:01:41;9.18;;;4.95;;
72422;SDS011;60413;55.658;37.498;2023-03-20T08:07:31;7.60;;;4.38;;
72422;SDS011;60413;55.658;37.498;2023-03-20T08:10:31;12.30;;;4.65;;
72422;SDS011;60413;55.658;37.498;2023-03-20T08:13:12;9.80;;;4.13;;
72422;SDS011;60413;55.658;37.498;2023-03-20T08:16:16;9.05;;;4.20;;
72422;SDS011;60413;55.658;37.498;2023-03-20T08:19:31;7.63;;;3.75;;
72422;SDS011;60413;55.658;37.498;2023-03-20T08:22:14;11.52;;;4.97;;
72422;SDS011;60413;55.658;37.498;2023-03-20T08:25:13;16.40;;;3.88;;
72422;SDS011;60413;55.658;37.498;2023-03-20T08:27:48;10.75;;;3.50;;
72422;SDS011;60413;55.658;37.498;2023-03-20T08:30:37;7.95;;;4.28;;
72422;SDS011;60413;55.658;37.498;2023-03-20T08:33:44;9.38;;;3.35;;
72422;SDS011;60413;55.658;37.498;2023-03-20T08:36:40;5.35;;;3.10;;
72422;SDS011;60413;55.658;37.498;2023-03-20T08:40:15;6.45;;;3.55;;
72422;SDS011;60413;55.658;37.498;2023-03-20T08:43:26;7.38;;;3.40;;
72422;SDS011;60413;55.658;37.498;2023-03-20T08:46:49;10.25;;;4.68;;
72422;SDS011;60413;55.658;37.498;2023-03-20T08:49:18;7.53;;;3.38;;
72422;SDS011;60413;55.658;37.498;2023-03-20T08:52:14;7.45;;;3.58;;
72422;SDS011;60413;55.658;37.498;2023-03-20T08:54:43;6.90;;;3.85;;
72422;SDS011;60413;55.658;37.498;2023-03-20T08:57:24;11.43;;;3.80;;
72422;SDS011;60413;55.658;37.498;2023-03-20T09:00:12;8.15;;;4.30;;
72422;SDS011;60413;55.658;37.498;2023-03-20T09:02:59;9.45;;;4.57;;
72422;SDS011;60413;55.658;37.498;2023-03-20T09:05:39;10.43;;;4.10;;
72422;SDS011;60413;55.658;37.498;2023-03-20T09:08:18;8.48;;;3.22;;
72422;SDS011;60413;55.658;37.498;2023-03-20T09:10:57;13.63;;;5.85;;
72422;SDS011;60413;55.658;37.498;2023-03-20T09:13:50;9.98;;;4.18;;
72422;SDS011;60413;55.658;37.498;2023-03-20T09:16:25;8.23;;;4.60;;
72422;SDS011;60413;55.658;37.498;2023-03-20T09:21:38;13.70;;;5.57;;
72422;SDS011;60413;55.658;37.498;2023-03-20T09:24:51;9.25;;;4.90;;
72422;SDS011;60413;55.658;37.498;2023-03-20T09:27:39;9.15;;;5.38;;
72422;SDS011;60413;55.658;37.498;2023-03-20T09:39:45;12.70;;;5.60;;
72422;SDS011;60413;55.658;37.498;2023-03-20T09:42:46;10.18;;;4.78;;
72422;SDS011;60413;55.658;37.498;2023-03-20T09:52:43;12.85;;;5.13;;
72422;SDS011;60413;55.658;37.498;2023-03-20T10:24:24;12.95;;;5.45;;
72422;SDS011;60413;55.658;37.498;2023-03-20T10:33:37;14.52;;;5.68;;
72422;SDS011;60413;55.658;37.498;2023-03-20T10:43:17;14.30;;;5.30;;
72422;SDS011;60413;55.658;37.498;2023-03-20T11:02:33;9.55;;;4.15;;
72422;SDS011;60413;55.658;37.498;2023-03-20T11:05:21;8.75;;;4.13;;
72422;SDS011;60413;55.658;37.498;2023-03-20T11:08:38;10.55;;;3.80;;
72422;SDS011;60413;55.658;37.498;2023-03-20T11:11:27;12.85;;;4.00;;
72422;SDS011;60413;55.658;37.498;2023-03-20T11:36:58;11.73;;;5.20;;
72422;SDS011;60413;55.658;37.498;2023-03-20T11:40:37;9.05;;;4.05;;
72422;SDS011;60413;55.658;37.498;2023-03-20T11:54:03;10.13;;;3.50;;
72422;SDS011;60413;55.658;37.498;2023-03-20T11:57:42;8.43;;;4.35;;
72422;SDS011;60413;55.658;37.498;2023-03-20T12:00:45;7.97;;;3.92;;
72422;SDS011;60413;55.658;37.498;2023-03-20T12:15:00;7.55;;;3.30;;
72422;SDS011;60413;55.658;37.498;2023-03-20T12:22:11;8.73;;;3.40;;
72422;SDS011;60413;55.658;37.498;2023-03-20T13:14:25;13.27;;;3.33;;
72422;SDS011;60413;55.658;37.498;2023-03-20T13:17:41;10.18;;;3.05;;
72422;SDS011;60413;55.658;37.498;2023-03-20T13:20:56;6.00;;;2.70;;
72422;SDS011;60413;55.658;37.498;2023-03-20T13:45:49;12.68;;;4.28;;
72422;SDS011;60413;55.658;37.498;2023-03-20T13:49:19;9.52;;;3.45;;
72422;SDS011;60413;55.658;37.498;2023-03-20T14:36:56;8.27;;;3.20;;
72422;SDS011;60413;55.658;37.498;2023-03-20T14:58:56;10.20;;;3.88;;
72422;SDS011;60413;55.658;37.498;2023-03-20T15:04:40;9.95;;;3.15;;
72422;SDS011;60413;55.658;37.498;2023-03-20T15:07:50;6.10;;;3.13;;
72422;SDS011;60413;55.658;37.498;2023-03-20T15:24:26;9.38;;;3.40;;
72422;SDS011;60413;55.658;37.498;2023-03-20T15:32:10;8.75;;;3.30;;
72422;SDS011;60413;55.658;37.498;2023-03-20T15:53:53;8.55;;;3.22;;
72422;SDS011;60413;55.658;37.498;2023-03-20T16:04:14;13.52;;;3.70;;
72422;SDS011;60413;55.658;37.498;2023-03-20T16:07:02;9.48;;;2.92;;
72422;SDS011;60413;55.658;37.498;2023-03-20T16:14:04;8.32;;;3.50;;
72422;SDS011;60413;55.658;37.498;2023-03-20T16:20:08;7.07;;;3.83;;
72422;SDS011;60413;55.658;37.498;2023-03-20T16:23:45;9.07;;;3.97;;
72422;SDS011;60413;55.658;37.498;2023-03-20T16:26:52;9.90;;;3.38;;
72422;SDS011;60413;55.658;37.498;2023-03-20T16:29:23;6.93;;;3.40;;
72422;SDS011;60413;55.658;37.498;2023-03-20T16:38:11;9.25;;;3.47;;
72422;SDS011;60413;55.658;37.498;2023-03-20T16:45:27;7.25;;;3.22;;
72422;SDS011;60413;55.658;37.498;2023-03-20T16:48:42;11.00;;;3.58;;
72422;SDS011;60413;55.658;37.498;2023-03-20T16:51:47;10.68;;;4.40;;
72422;SDS011;60413;55.658;37.498;2023-03-20T16:54:21;8.75;;;3.55;;
72422;SDS011;60413;55.658;37.498;2023-03-20T16:56:51;7.05;;;3.45;;
72422;SDS011;60413;55.658;37.498;2023-03-20T16:59:37;10.73;;;3.80;;
72422;SDS011;60413;55.658;37.498;2023-03-20T17:02:48;9.50;;;3.40;;
72422;SDS011;60413;55.658;37.498;2023-03-20T17:05:28;9.48;;;3.85;;
72422;SDS011;60413;55.658;37.498;2023-03-20T17:08:11;7.65;;;3.35;;
72422;SDS011;60413;55.658;37.498;2023-03-20T17:10:47;10.07;;;4.03;;
72422;SDS011;60413;55.658;37.498;2023-03-20T17:13:21;18.55;;;4.00;;
72422;SDS011;60413;55.658;37.498;2023-03-20T17:16:03;9.70;;;3.08;;
72422;SDS011;60413;55.658;37.498;2023-03-20T17:19:05;13.30;;;3.53;;
72422;SDS011;60413;55.658;37.498;2023-03-20T17:22:13;18.05;;;3.80;;
72422;SDS011;60413;55.658;37.498;2023-03-20T17:24:52;11.18;;;4.03;;
72422;SDS011;60413;55.658;37.498;2023-03-20T17:27:31;9.25;;;3.60;;
72422;SDS011;60413;55.658;37.498;2023-03-20T17:30:11;10.70;;;3.75;;
72422;SDS011;60413;55.658;37.498;2023-03-20T17:33:10;8.77;;;3.67;;
72422;SDS011;60413;55.658;37.498;2023-03-20T17:35:50;6.10;;;3.08;;
72422;SDS011;60413;55.658;37.498;2023-03-20T17:38:57;11.95;;;4.05;;
72422;SDS011;60413;55.658;37.498;2023-03-20T17:41:42;10.45;;;3.42;;
72422;SDS011;60413;55.658;37.498;2023-03-20T17:44:15;11.50;;;3.35;;
72422;SDS011;60413;55.658;37.498;2023-03-20T17:47:40;12.13;;;3.78;;
72422;SDS011;60413;55.658;37.498;2023-03-20T17:50:23;12.30;;;3.83;;
72422;SDS011;60413;55.658;37.498;2023-03-20T17:53:14;7.30;;;2.88;;
72422;SDS011;60413;55.658;37.498;2023-03-20T17:56:16;11.18;;;3.30;;
72422;SDS011;60413;55.658;37.498;2023-03-20T17:59:12;6.57;;;3.08;;
72422;SDS011;60413;55.658;37.498;2023-03-20T18:02:31;11.10;;;3.10;;
72422;SDS011;60413;55.658;37.498;2023-03-20T18:05:35;13.30;;;3.60;;
72422;SDS011;60413;55.658;37.498;2023-03-20T18:11:13;8.87;;;3.10;;
72422;SDS011;60413;55.658;37.498;2023-03-20T18:14:08;9.57;;;3.33;;
72422;SDS011;60413;55.658;37.498;2023-03-20T18:17:00;5.28;;;2.50;;
72422;SDS011;60413;55.658;37.498;2023-03-20T18:19:33;13.43;;;3.65;;
72422;SDS011;60413;55.658;37.498;2023-03-20T18:22:03;7.18;;;3.45;;
72422;SDS011;60413;55.658;37.498;2023-03-20T18:24:39;5.63;;;2.92;;
72422;SDS011;60413;55.658;37.498;2023-03-20T18:27:06;13.30;;;3.28;;
72422;SDS011;60413;55.658;37.498;2023-03-20T18:29:43;8.05;;;3.60;;
72422;SDS011;60413;55.658;37.498;2023-03-20T18:32:09;9.43;;;3.55;;
72422;SDS011;60413;55.658;37.498;2023-03-20T18:34:40;7.30;;;2.65;;
72422;SDS011;60413;55.658;37.498;2023-03-20T18:37:18;10.52;;;3.85;;
72422;SDS011;60413;55.658;37.498;2023-03-20T18:40:10;11.18;;;3.47;;
72422;SDS011;60413;55.658;37.498;2023-03-20T18:43:07;13.52;;;3.40;;
72422;SDS011;60413;55.658;37.498;2023-03-20T18:45:47;12.05;;;3.33;;
72422;SDS011;60413;55.658;37.498;2023-03-20T18:48:37;7.47;;;3.45;;
72422;SDS011;60413;55.658;37.498;2023-03-20T18:54:45;6.75;;;3.30;;
72422;SDS011;60413;55.658;37.498;2023-03-20T18:57:49;8.93;;;3.55;;
72422;SDS011;60413;55.658;37.498;2023-03-20T19:00:38;11.85;;;3.72;;
72422;SDS011;60413;55.658;37.498;2023-03-20T19:13:26;10.57;;;4.32;;
72422;SDS011;60413;55.658;37.498;2023-03-20T19:19:21;10.75;;;3.53;;
72422;SDS011;60413;55.658;37.498;2023-03-20T19:22:18;7.82;;;3.28;;
72422;SDS011;60413;55.658;37.498;2023-03-20T19:25:19;8.20;;;3.08;;
72422;SDS011;60413;55.658;37.498;2023-03-20T19:27:47;11.40;;;3.80;;
72422;SDS011;60413;55.658;37.498;2023-03-20T19:30:54;8.40;;;3.10;;
72422;SDS011;60413;55.658;37.498;2023-03-20T19:43:55;14.13;;;4.45;;
72422;SDS011;60413;55.658;37.498;2023-03-20T19:46:53;9.48;;;3.80;;
72422;SDS011;60413;55.658;37.498;2023-03-20T19:49:23;14.35;;;4.15;;
72422;SDS011;60413;55.658;37.498;2023-03-20T19:57:53;10.88;;;3.92;;
72422;SDS011;60413;55.658;37.498;2023-03-20T20:00:57;9.43;;;3.58;;
72422;SDS011;60413;55.658;37.498;2023-03-20T20:03:25;13.25;;;4.07;;
72422;SDS011;60413;55.658;37.498;2023-03-20T20:08:47;15.52;;;5.25;;
72422;SDS011;60413;55.658;37.498;2023-03-20T20:11:49;12.80;;;4.60;;
72422;SDS011;60413;55.658;37.498;2023-03-20T20:14:25;12.05;;;3.85;;
72422;SDS011;60413;55.658;37.498;2023-03-20T20:16:54;14.13;;;4.70;;
72422;SDS011;60413;55.658;37.498;2023-03-20T20:19:40;12.50;;;4.28;;
72422;SDS011;60413;55.658;37.498;2023-03-20T20:22:32;15.52;;;4.10;;
72422;SDS011;60413;55.658;37.498;2023-03-20T20:24:59;10.25;;;3.80;;
72422;SDS011;60413;55.658;37.498;2023-03-20T20:27:25;12.73;;;4.07;;
72422;SDS011;60413;55.658;37.498;2023-03-20T20:30:07;7.50;;;3.97;;
72422;SDS011;60413;55.658;37.498;2023-03-20T20:39:26;8.15;;;3.60;;
72422;SDS011;60413;55.658;37.498;2023-03-20T20:41:57;9.02;;;3.80;;
72422;SDS011;60413;55.658;37.498;2023-03-20T20:44:32;21.63;;;7.15;;
72422;SDS011;60413;55.658;37.498;2023-03-20T20:47:04;7.60;;;3.58;;
72422;SDS011;60413;55.658;37.498;2023-03-20T20:50:10;18.33;;;5.88;;
72422;SDS011;60413;55.658;37.498;2023-03-20T20:53:47;10.00;;;3.88;;
72422;SDS011;60413;55.658;37.498;2023-03-20T20:59:24;14.30;;;4.18;;
72422;SDS011;60413;55.658;37.498;2023-03-20T21:02:30;12.27;;;3.80;;
72422;SDS011;60413;55.658;37.498;2023-03-20T21:05:32;9.50;;;3.85;;
72422;SDS011;60413;55.658;37.498;2023-03-20T21:08:21;14.27;;;5.13;;
72422;SDS011;60413;55.658;37.498;2023-03-20T21:14:11;14.82;;;4.65;;
72422;SDS011;60413;55.658;37.498;2023-03-20T21:17:48;13.73;;;4.70;;
72422;SDS011;60413;55.658;37.498;2023-03-20T21:20:32;9.70;;;3.92;;
72422;SDS011;60413;55.658;37.498;2023-03-20T21:23:26;9.80;;;3.72;;
72422;SDS011;60413;55.658;37.498;2023-03-20T21:26:21;11.93;;;3.45;;
72422;SDS011;60413;55.658;37.498;2023-03-20T21:28:53;11.48;;;3.95;;
72422;SDS011;60413;55.658;37.498;2023-03-20T21:31:37;8.00;;;3.65;;
72422;SDS011;60413;55.658;37.498;2023-03-20T21:46:17;11.27;;;3.38;;
72422;SDS011;60413;55.658;37.498;2023-03-20T21:53:39;10.45;;;3.53;;
72422;SDS011;60413;55.658;37.498;2023-03-20T21:57:13;9.73;;;3.05;;
72422;SDS011;60413;55.658;37.498;2023-03-20T22:01:03;10.52;;;3.75;;
72422;SDS011;60413;55.658;37.498;2023-03-20T22:04:10;10.50;;;3.38;;
72422;SDS011;60413;55.658;37.498;2023-03-20T22:07:09;9.35;;;3.75;;
72422;SDS011;60413;55.658;37.498;2023-03-20T22:10:05;9.95;;;3.35;;
72422;SDS011;60413;55.658;37.498;2023-03-20T22:12:46;12.52;;;3.30;;
72422;SDS011;60413;55.658;37.498;2023-03-20T22:15:40;7.18;;;3.00;;
72422;SDS011;60413;55.658;37.498;2023-03-20T22:18:25;7.63;;;3.38;;
72422;SDS011;60413;55.658;37.498;2023-03-20T22:21:17;10.48;;;4.30;;
72422;SDS011;60413;55.658;37.498;2023-03-20T22:24:12;12.23;;;3.45;;
72422;SDS011;60413;55.658;37.498;2023-03-20T22:27:05;6.88;;;3.45;;
72422;SDS011;60413;55.658;37.498;2023-03-20T22:30:19;7.63;;;3.10;;
72422;SDS011;60413;55.658;37.498;2023-03-20T22:33:17;16.50;;;3.22;;
72422;SDS011;60413;55.658;37.498;2023-03-20T22:44:13;14.55;;;3.03;;
72422;SDS011;60413;55.658;37.498;2023-03-20T22:47:10;12.57;;;3.78;;
72422;SDS011;60413;55.658;37.498;2023-03-20T22:50:03;9.18;;;3.42;;
72422;SDS011;60413;55.658;37.498;2023-03-20T22:52:42;8.43;;;3.65;;
72422;SDS011;60413;55.658;37.498;2023-03-20T22:55:28;8.57;;;3.53;;
72422;SDS011;60413;55.658;37.498;2023-03-20T22:58:27;8.68;;;3.13;;
72422;SDS011;60413;55.658;37.498;2023-03-20T23:01:04;6.25;;;3.10;;
72422;SDS011;60413;55.658;37.498;2023-03-20T23:03:41;13.25;;;4.03;;
72422;SDS011;60413;55.658;37.498;2023-03-20T23:06:23;7.63;;;3.38;;
72422;SDS011;60413;55.658;37.498;2023-03-20T23:09:15;9.73;;;3.33;;
72422;SDS011;60413;55.658;37.498;2023-03-20T23:14:54;6.10;;;3.10;;
72422;SDS011;60413;55.658;37.498;2023-03-20T23:21:00;8.95;;;3.20;;
72422;SDS011;60413;55.658;37.498;2023-03-20T23:27:23;9.85;;;3.08;;
72422;SDS011;60413;55.658;37.498;2023-03-20T23:30:26;11.60;;;3.13;;
72422;SDS011;60413;55.658;37.498;2023-03-20T23:32:54;5.40;;;2.95;;
72422;SDS011;60413;55.658;37.498;2023-03-20T23:35:40;7.65;;;3.10;;
72422;SDS011;60413;55.658;37.498;2023-03-20T23:43:12;7.72;;;3.35;;
72422;SDS011;60413;55.658;37.498;2023-03-20T23:47:01;8.15;;;3.10;;
72422;SDS011;60413;55.658;37.498;2023-03-20T23:49:36;5.03;;;2.75;;
72422;SDS011;60413;55.658;37.498;2023-03-20T23:52:19;5.55;;;2.88;;
72422;SDS011;60413;55.658;37.498;2023-03-20T23:55:17;11.25;;;4.20;;
72422;SDS011;60413;55.658;37.498;2023-03-20T23:58:09;8.40;;;3.65;;
